sensor_id;sensor_type;location;lat;lon;timestamp;P1;durP1;ratioP1;P2;durP2;ratioP2
70825;SDS011;58446;41.490;22.098;2024-03-06T00:01:02;46.87;;;28.27;;
70825;SDS011;58446;41.490;22.098;2024-03-06T00:03:27;40.17;;;26.77;;
70825;SDS011;58446;41.490;22.098;2024-03-06T00:05:53;50.20;;;29.67;;
70825;SDS011;58446;41.490;22.098;2024-03-06T00:08:19;44.60;;;26.65;;
70825;SDS011;58446;41.490;22.098;2024-03-06T00:10:44;38.83;;;26.00;;
70825;SDS011;58446;41.490;22.098;2024-03-06T00:13:10;44.03;;;26.70;;
70825;SDS011;58446;41.490;22.098;2024-03-06T00:15:36;42.17;;;26.63;;
70825;SDS011;58446;41.490;22.098;2024-03-06T00:18:02;45.15;;;25.55;;
70825;SDS011;58446;41.490;22.098;2024-03-06T00:20:29;36.15;;;24.80;;
70825;SDS011;58446;41.490;22.098;2024-03-06T00:22:54;37.30;;;24.40;;
70825;SDS011;58446;41.490;22.098;2024-03-06T00:25:20;34.80;;;22.13;;
70825;SDS011;58446;41.490;22.098;2024-03-06T00:27:46;46.05;;;28.65;;
70825;SDS011;58446;41.490;22.098;2024-03-06T00:30:13;35.90;;;23.40;;
70825;SDS011;58446;41.490;22.098;2024-03-06T00:32:39;49.22;;;31.85;;
70825;SDS011;58446;41.490;22.098;2024-03-06T00:35:05;39.53;;;27.83;;
70825;SDS011;58446;41.490;22.098;2024-03-06T00:37:32;43.70;;;27.70;;
70825;SDS011;58446;41.490;22.098;2024-03-06T00:39:57;36.93;;;24.07;;
70825;SDS011;58446;41.490;22.098;2024-03-06T00:42:23;42.97;;;27.55;;
70825;SDS011;58446;41.490;22.098;2024-03-06T00:44:49;36.10;;;24.37;;
70825;SDS011;58446;41.490;22.098;2024-03-06T00:47:15;41.53;;;26.13;;
70825;SDS011;58446;41.490;22.098;2024-03-06T00:49:41;44.35;;;26.48;;
70825;SDS011;58446;41.490;22.098;2024-03-06T00:52:07;41.40;;;26.20;;
70825;SDS011;58446;41.490;22.098;2024-03-06T00:54:34;43.75;;;25.73;;
70825;SDS011;58446;41.490;22.098;2024-03-06T00:57:00;43.00;;;27.55;;
70825;SDS011;58446;41.490;22.098;2024-03-06T00:59:26;52.25;;;31.27;;
70825;SDS011;58446;41.490;22.098;2024-03-06T01:01:53;51.17;;;30.60;;
70825;SDS011;58446;41.490;22.098;2024-03-06T01:04:21;49.40;;;29.00;;
70825;SDS011;58446;41.490;22.098;2024-03-06T01:06:47;50.72;;;30.08;;
70825;SDS011;58446;41.490;22.098;2024-03-06T01:09:13;62.45;;;34.13;;
70825;SDS011;58446;41.490;22.098;2024-03-06T01:11:39;52.97;;;31.57;;
70825;SDS011;58446;41.490;22.098;2024-03-06T01:14:06;62.90;;;34.15;;
70825;SDS011;58446;41.490;22.098;2024-03-06T01:16:33;53.97;;;29.45;;
70825;SDS011;58446;41.490;22.098;2024-03-06T01:18:58;61.53;;;34.83;;
70825;SDS011;58446;41.490;22.098;2024-03-06T01:21:24;52.97;;;30.55;;
70825;SDS011;58446;41.490;22.098;2024-03-06T01:23:50;64.17;;;34.57;;
70825;SDS011;58446;41.490;22.098;2024-03-06T01:26:16;60.60;;;35.53;;
70825;SDS011;58446;41.490;22.098;2024-03-06T01:28:41;49.30;;;30.23;;
70825;SDS011;58446;41.490;22.098;2024-03-06T01:31:07;53.13;;;30.77;;
70825;SDS011;58446;41.490;22.098;2024-03-06T01:33:33;49.22;;;30.92;;
70825;SDS011;58446;41.490;22.098;2024-03-06T01:35:59;53.67;;;31.87;;
70825;SDS011;58446;41.490;22.098;2024-03-06T01:38:25;54.47;;;31.25;;
70825;SDS011;58446;41.490;22.098;2024-03-06T01:40:50;53.67;;;30.43;;
70825;SDS011;58446;41.490;22.098;2024-03-06T01:43:22;50.55;;;30.10;;
70825;SDS011;58446;41.490;22.098;2024-03-06T01:45:49;51.90;;;31.43;;
70825;SDS011;58446;41.490;22.098;2024-03-06T01:48:26;58.90;;;34.97;;
70825;SDS011;58446;41.490;22.098;2024-03-06T01:50:54;52.53;;;29.33;;
70825;SDS011;58446;41.490;22.098;2024-03-06T01:53:21;48.55;;;29.65;;
70825;SDS011;58446;41.490;22.098;2024-03-06T01:55:49;53.17;;;32.63;;
70825;SDS011;58446;41.490;22.098;2024-03-06T01:58:16;58.27;;;33.73;;
70825;SDS011;58446;41.490;22.098;2024-03-06T02:00:43;58.88;;;36.58;;
70825;SDS011;58446;41.490;22.098;2024-03-06T02:03:09;65.90;;;39.28;;
70825;SDS011;58446;41.490;22.098;2024-03-06T02:05:36;66.15;;;38.58;;
70825;SDS011;58446;41.490;22.098;2024-03-06T02:08:02;74.80;;;40.67;;
70825;SDS011;58446;41.490;22.098;2024-03-06T02:10:29;64.28;;;38.67;;
70825;SDS011;58446;41.490;22.098;2024-03-06T02:12:55;64.25;;;37.85;;
70825;SDS011;58446;41.490;22.098;2024-03-06T02:15:21;63.00;;;38.35;;
70825;SDS011;58446;41.490;22.098;2024-03-06T02:17:47;64.60;;;37.13;;
70825;SDS011;58446;41.490;22.098;2024-03-06T02:20:13;54.72;;;33.30;;
70825;SDS011;58446;41.490;22.098;2024-03-06T02:22:41;52.23;;;30.83;;
70825;SDS011;58446;41.490;22.098;2024-03-06T02:25:06;46.47;;;28.48;;
70825;SDS011;58446;41.490;22.098;2024-03-06T02:27:32;43.15;;;24.73;;
70825;SDS011;58446;41.490;22.098;2024-03-06T02:29:58;41.70;;;25.60;;
70825;SDS011;58446;41.490;22.098;2024-03-06T02:32:23;39.72;;;26.30;;
70825;SDS011;58446;41.490;22.098;2024-03-06T02:34:50;41.38;;;25.10;;
70825;SDS011;58446;41.490;22.098;2024-03-06T02:37:16;38.17;;;24.77;;
70825;SDS011;58446;41.490;22.098;2024-03-06T02:39:43;41.42;;;25.48;;
70825;SDS011;58446;41.490;22.098;2024-03-06T02:42:09;41.65;;;25.27;;
70825;SDS011;58446;41.490;22.098;2024-03-06T02:44:34;44.23;;;27.90;;
70825;SDS011;58446;41.490;22.098;2024-03-06T02:47:00;56.42;;;32.65;;
70825;SDS011;58446;41.490;22.098;2024-03-06T02:49:26;57.30;;;31.50;;
70825;SDS011;58446;41.490;22.098;2024-03-06T02:51:51;48.80;;;29.05;;
70825;SDS011;58446;41.490;22.098;2024-03-06T02:54:17;47.20;;;27.83;;
70825;SDS011;58446;41.490;22.098;2024-03-06T02:56:43;43.60;;;26.73;;
70825;SDS011;58446;41.490;22.098;2024-03-06T02:59:08;45.13;;;26.60;;
70825;SDS011;58446;41.490;22.098;2024-03-06T03:01:34;44.88;;;25.02;;
70825;SDS011;58446;41.490;22.098;2024-03-06T03:04:00;39.08;;;25.02;;
70825;SDS011;58446;41.490;22.098;2024-03-06T03:06:25;38.30;;;24.23;;
70825;SDS011;58446;41.490;22.098;2024-03-06T03:08:51;37.43;;;23.50;;
70825;SDS011;58446;41.490;22.098;2024-03-06T03:11:17;35.67;;;22.97;;
70825;SDS011;58446;41.490;22.098;2024-03-06T03:13:43;32.90;;;20.33;;
70825;SDS011;58446;41.490;22.098;2024-03-06T03:16:15;32.60;;;19.63;;
70825;SDS011;58446;41.490;22.098;2024-03-06T03:18:45;27.98;;;18.60;;
70825;SDS011;58446;41.490;22.098;2024-03-06T03:21:11;28.40;;;19.33;;
70825;SDS011;58446;41.490;22.098;2024-03-06T03:23:38;28.98;;;18.63;;
70825;SDS011;58446;41.490;22.098;2024-03-06T03:26:05;28.88;;;19.42;;
70825;SDS011;58446;41.490;22.098;2024-03-06T03:28:32;28.27;;;19.17;;
70825;SDS011;58446;41.490;22.098;2024-03-06T03:30:58;26.60;;;18.85;;
70825;SDS011;58446;41.490;22.098;2024-03-06T03:33:24;26.55;;;19.45;;
70825;SDS011;58446;41.490;22.098;2024-03-06T03:35:50;26.17;;;17.80;;
70825;SDS011;58446;41.490;22.098;2024-03-06T03:38:16;26.20;;;18.30;;
70825;SDS011;58446;41.490;22.098;2024-03-06T03:40:42;29.10;;;18.48;;
70825;SDS011;58446;41.490;22.098;2024-03-06T03:43:08;26.30;;;17.23;;
70825;SDS011;58446;41.490;22.098;2024-03-06T03:45:34;27.40;;;17.02;;
70825;SDS011;58446;41.490;22.098;2024-03-06T03:48:04;28.55;;;16.92;;
70825;SDS011;58446;41.490;22.098;2024-03-06T03:50:30;23.55;;;15.40;;
70825;SDS011;58446;41.490;22.098;2024-03-06T03:52:57;23.60;;;15.17;;
70825;SDS011;58446;41.490;22.098;2024-03-06T03:55:23;27.42;;;16.38;;
70825;SDS011;58446;41.490;22.098;2024-03-06T03:57:50;22.02;;;15.70;;
70825;SDS011;58446;41.490;22.098;2024-03-06T04:00:17;22.13;;;15.07;;
70825;SDS011;58446;41.490;22.098;2024-03-06T04:02:43;21.23;;;14.40;;
70825;SDS011;58446;41.490;22.098;2024-03-06T04:05:09;26.10;;;16.50;;
70825;SDS011;58446;41.490;22.098;2024-03-06T04:07:36;24.95;;;16.17;;
70825;SDS011;58446;41.490;22.098;2024-03-06T04:10:03;22.65;;;15.60;;
70825;SDS011;58446;41.490;22.098;2024-03-06T04:12:29;23.80;;;15.33;;
70825;SDS011;58446;41.490;22.098;2024-03-06T04:14:55;22.70;;;15.15;;
70825;SDS011;58446;41.490;22.098;2024-03-06T04:17:21;25.13;;;16.50;;
70825;SDS011;58446;41.490;22.098;2024-03-06T04:19:47;29.00;;;18.40;;
70825;SDS011;58446;41.490;22.098;2024-03-06T04:22:13;27.25;;;17.30;;
70825;SDS011;58446;41.490;22.098;2024-03-06T04:24:43;29.40;;;17.75;;
70825;SDS011;58446;41.490;22.098;2024-03-06T04:27:08;25.60;;;16.65;;
70825;SDS011;58446;41.490;22.098;2024-03-06T04:29:34;26.60;;;17.00;;
70825;SDS011;58446;41.490;22.098;2024-03-06T04:32:00;26.52;;;16.27;;
70825;SDS011;58446;41.490;22.098;2024-03-06T04:34:25;27.63;;;17.07;;
70825;SDS011;58446;41.490;22.098;2024-03-06T04:36:51;24.97;;;16.27;;
70825;SDS011;58446;41.490;22.098;2024-03-06T04:39:17;25.20;;;16.57;;
70825;SDS011;58446;41.490;22.098;2024-03-06T04:41:43;24.50;;;15.82;;
70825;SDS011;58446;41.490;22.098;2024-03-06T04:44:08;22.37;;;14.73;;
70825;SDS011;58446;41.490;22.098;2024-03-06T04:46:34;20.27;;;14.10;;
70825;SDS011;58446;41.490;22.098;2024-03-06T04:49:00;19.60;;;13.03;;
70825;SDS011;58446;41.490;22.098;2024-03-06T04:51:25;21.55;;;13.57;;
70825;SDS011;58446;41.490;22.098;2024-03-06T04:53:51;19.17;;;13.60;;
70825;SDS011;58446;41.490;22.098;2024-03-06T04:56:17;18.83;;;12.60;;
70825;SDS011;58446;41.490;22.098;2024-03-06T04:58:44;21.15;;;14.23;;
70825;SDS011;58446;41.490;22.098;2024-03-06T05:01:11;19.17;;;12.80;;
70825;SDS011;58446;41.490;22.098;2024-03-06T05:03:37;21.52;;;13.32;;
70825;SDS011;58446;41.490;22.098;2024-03-06T05:06:03;19.87;;;12.90;;
70825;SDS011;58446;41.490;22.098;2024-03-06T05:08:30;24.40;;;11.98;;
70825;SDS011;58446;41.490;22.098;2024-03-06T05:10:56;25.27;;;13.07;;
70825;SDS011;58446;41.490;22.098;2024-03-06T05:13:22;19.77;;;13.07;;
70825;SDS011;58446;41.490;22.098;2024-03-06T05:15:48;32.50;;;13.63;;
70825;SDS011;58446;41.490;22.098;2024-03-06T05:18:14;55.03;;;14.98;;
70825;SDS011;58446;41.490;22.098;2024-03-06T05:20:40;54.67;;;14.13;;
70825;SDS011;58446;41.490;22.098;2024-03-06T05:23:05;63.05;;;15.90;;
70825;SDS011;58446;41.490;22.098;2024-03-06T05:25:31;21.33;;;12.97;;
70825;SDS011;58446;41.490;22.098;2024-03-06T05:27:57;24.25;;;13.60;;
70825;SDS011;58446;41.490;22.098;2024-03-06T05:30:22;30.17;;;18.03;;
70825;SDS011;58446;41.490;22.098;2024-03-06T05:32:48;51.08;;;28.25;;
70825;SDS011;58446;41.490;22.098;2024-03-06T05:35:14;33.33;;;19.10;;
70825;SDS011;58446;41.490;22.098;2024-03-06T05:37:39;22.57;;;14.93;;
70825;SDS011;58446;41.490;22.098;2024-03-06T05:40:05;23.77;;;13.27;;
70825;SDS011;58446;41.490;22.098;2024-03-06T05:42:31;26.13;;;14.75;;
70825;SDS011;58446;41.490;22.098;2024-03-06T05:44:57;24.03;;;15.60;;
70825;SDS011;58446;41.490;22.098;2024-03-06T05:47:31;23.88;;;14.90;;
70825;SDS011;58446;41.490;22.098;2024-03-06T05:49:57;21.60;;;13.98;;
70825;SDS011;58446;41.490;22.098;2024-03-06T05:52:23;19.70;;;11.73;;
70825;SDS011;58446;41.490;22.098;2024-03-06T05:54:49;20.80;;;11.50;;
70825;SDS011;58446;41.490;22.098;2024-03-06T05:57:15;19.23;;;12.70;;
70825;SDS011;58446;41.490;22.098;2024-03-06T05:59:41;16.97;;;11.73;;
70825;SDS011;58446;41.490;22.098;2024-03-06T06:02:07;16.73;;;11.32;;
70825;SDS011;58446;41.490;22.098;2024-03-06T06:04:33;17.90;;;10.80;;
70825;SDS011;58446;41.490;22.098;2024-03-06T06:06:58;16.77;;;11.05;;
70825;SDS011;58446;41.490;22.098;2024-03-06T06:09:24;18.30;;;11.43;;
70825;SDS011;58446;41.490;22.098;2024-03-06T06:11:50;16.98;;;11.30;;
70825;SDS011;58446;41.490;22.098;2024-03-06T06:14:16;18.75;;;11.68;;
70825;SDS011;58446;41.490;22.098;2024-03-06T06:16:42;17.60;;;11.40;;
70825;SDS011;58446;41.490;22.098;2024-03-06T06:19:08;18.08;;;12.20;;
70825;SDS011;58446;41.490;22.098;2024-03-06T06:21:34;19.77;;;13.10;;
70825;SDS011;58446;41.490;22.098;2024-03-06T06:24:03;18.80;;;12.20;;
70825;SDS011;58446;41.490;22.098;2024-03-06T06:26:30;19.27;;;12.60;;
70825;SDS011;58446;41.490;22.098;2024-03-06T06:28:56;18.65;;;12.85;;
70825;SDS011;58446;41.490;22.098;2024-03-06T06:31:23;19.33;;;12.20;;
70825;SDS011;58446;41.490;22.098;2024-03-06T06:33:50;17.87;;;12.37;;
70825;SDS011;58446;41.490;22.098;2024-03-06T06:36:16;49.42;;;25.77;;
70825;SDS011;58446;41.490;22.098;2024-03-06T06:38:43;60.80;;;28.65;;
70825;SDS011;58446;41.490;22.098;2024-03-06T06:41:09;52.25;;;27.25;;
70825;SDS011;58446;41.490;22.098;2024-03-06T06:43:35;39.00;;;21.30;;
70825;SDS011;58446;41.490;22.098;2024-03-06T06:46:01;83.80;;;42.83;;
70825;SDS011;58446;41.490;22.098;2024-03-06T06:48:30;55.55;;;29.70;;
70825;SDS011;58446;41.490;22.098;2024-03-06T06:50:56;54.95;;;28.30;;
70825;SDS011;58446;41.490;22.098;2024-03-06T06:53:21;50.10;;;26.97;;
70825;SDS011;58446;41.490;22.098;2024-03-06T06:55:47;45.05;;;25.45;;
70825;SDS011;58446;41.490;22.098;2024-03-06T06:58:13;49.97;;;27.37;;
70825;SDS011;58446;41.490;22.098;2024-03-06T07:00:38;45.30;;;25.88;;
70825;SDS011;58446;41.490;22.098;2024-03-06T07:03:04;45.90;;;25.30;;
70825;SDS011;58446;41.490;22.098;2024-03-06T07:05:30;43.15;;;25.52;;
70825;SDS011;58446;41.490;22.098;2024-03-06T07:07:56;37.83;;;23.93;;
70825;SDS011;58446;41.490;22.098;2024-03-06T07:10:21;38.88;;;25.60;;
70825;SDS011;58446;41.490;22.098;2024-03-06T07:12:48;37.85;;;25.23;;
70825;SDS011;58446;41.490;22.098;2024-03-06T07:15:14;34.07;;;22.17;;
70825;SDS011;58446;41.490;22.098;2024-03-06T07:17:39;35.23;;;21.83;;
70825;SDS011;58446;41.490;22.098;2024-03-06T07:20:05;35.78;;;22.25;;
70825;SDS011;58446;41.490;22.098;2024-03-06T07:22:33;30.92;;;20.92;;
70825;SDS011;58446;41.490;22.098;2024-03-06T07:24:59;31.63;;;19.73;;
70825;SDS011;58446;41.490;22.098;2024-03-06T07:27:27;27.20;;;19.35;;
70825;SDS011;58446;41.490;22.098;2024-03-06T07:29:53;23.30;;;15.20;;
70825;SDS011;58446;41.490;22.098;2024-03-06T07:32:19;24.87;;;16.57;;
70825;SDS011;58446;41.490;22.098;2024-03-06T07:34:45;25.75;;;17.30;;
70825;SDS011;58446;41.490;22.098;2024-03-06T07:37:10;29.83;;;18.73;;
70825;SDS011;58446;41.490;22.098;2024-03-06T07:39:36;31.63;;;18.70;;
70825;SDS011;58446;41.490;22.098;2024-03-06T07:42:02;24.52;;;17.75;;
70825;SDS011;58446;41.490;22.098;2024-03-06T07:44:28;25.38;;;16.50;;
70825;SDS011;58446;41.490;22.098;2024-03-06T07:46:54;24.13;;;15.37;;
70825;SDS011;58446;41.490;22.098;2024-03-06T07:49:20;21.33;;;12.82;;
70825;SDS011;58446;41.490;22.098;2024-03-06T07:51:48;19.52;;;12.20;;
70825;SDS011;58446;41.490;22.098;2024-03-06T07:54:15;19.63;;;11.80;;
70825;SDS011;58446;41.490;22.098;2024-03-06T07:56:40;18.23;;;11.70;;
70825;SDS011;58446;41.490;22.098;2024-03-06T07:59:06;17.70;;;11.23;;
70825;SDS011;58446;41.490;22.098;2024-03-06T08:01:32;19.93;;;11.37;;
70825;SDS011;58446;41.490;22.098;2024-03-06T08:03:58;18.80;;;11.50;;
70825;SDS011;58446;41.490;22.098;2024-03-06T08:06:24;20.23;;;11.67;;
70825;SDS011;58446;41.490;22.098;2024-03-06T08:08:50;20.15;;;11.98;;
70825;SDS011;58446;41.490;22.098;2024-03-06T08:11:17;20.95;;;11.27;;
70825;SDS011;58446;41.490;22.098;2024-03-06T08:13:43;20.65;;;11.23;;
70825;SDS011;58446;41.490;22.098;2024-03-06T08:16:09;18.63;;;11.73;;
70825;SDS011;58446;41.490;22.098;2024-03-06T08:18:35;16.33;;;10.50;;
70825;SDS011;58446;41.490;22.098;2024-03-06T08:21:02;15.75;;;10.32;;
70825;SDS011;58446;41.490;22.098;2024-03-06T08:23:30;17.95;;;11.00;;
70825;SDS011;58446;41.490;22.098;2024-03-06T08:25:56;17.03;;;9.80;;
70825;SDS011;58446;41.490;22.098;2024-03-06T08:28:21;15.90;;;10.00;;
70825;SDS011;58446;41.490;22.098;2024-03-06T08:30:47;16.97;;;10.27;;
70825;SDS011;58446;41.490;22.098;2024-03-06T08:33:13;17.20;;;11.10;;
70825;SDS011;58446;41.490;22.098;2024-03-06T08:35:39;18.10;;;11.90;;
70825;SDS011;58446;41.490;22.098;2024-03-06T08:38:05;19.08;;;10.40;;
70825;SDS011;58446;41.490;22.098;2024-03-06T08:40:31;17.10;;;11.60;;
70825;SDS011;58446;41.490;22.098;2024-03-06T08:42:58;18.10;;;10.45;;
70825;SDS011;58446;41.490;22.098;2024-03-06T08:45:24;18.53;;;10.43;;
70825;SDS011;58446;41.490;22.098;2024-03-06T08:47:50;20.13;;;10.45;;
70825;SDS011;58446;41.490;22.098;2024-03-06T08:50:19;17.17;;;9.85;;
70825;SDS011;58446;41.490;22.098;2024-03-06T08:52:45;15.67;;;10.13;;
70825;SDS011;58446;41.490;22.098;2024-03-06T08:55:11;18.57;;;9.13;;
70825;SDS011;58446;41.490;22.098;2024-03-06T08:57:37;18.85;;;10.20;;
70825;SDS011;58446;41.490;22.098;2024-03-06T09:00:04;15.85;;;9.73;;
70825;SDS011;58446;41.490;22.098;2024-03-06T09:02:35;15.03;;;9.17;;
70825;SDS011;58446;41.490;22.098;2024-03-06T09:05:05;15.73;;;9.25;;
70825;SDS011;58446;41.490;22.098;2024-03-06T09:07:32;15.77;;;10.02;;
70825;SDS011;58446;41.490;22.098;2024-03-06T09:10:03;15.13;;;9.80;;
70825;SDS011;58446;41.490;22.098;2024-03-06T09:12:36;14.32;;;8.75;;
70825;SDS011;58446;41.490;22.098;2024-03-06T09:15:02;15.77;;;8.37;;
70825;SDS011;58446;41.490;22.098;2024-03-06T09:17:29;15.55;;;8.77;;
70825;SDS011;58446;41.490;22.098;2024-03-06T09:19:55;14.02;;;8.35;;
70825;SDS011;58446;41.490;22.098;2024-03-06T09:22:21;15.70;;;9.00;;
70825;SDS011;58446;41.490;22.098;2024-03-06T09:24:46;16.10;;;9.20;;
70825;SDS011;58446;41.490;22.098;2024-03-06T09:27:13;18.55;;;9.70;;
70825;SDS011;58446;41.490;22.098;2024-03-06T09:29:42;15.88;;;9.32;;
70825;SDS011;58446;41.490;22.098;2024-03-06T09:32:08;18.52;;;9.65;;
70825;SDS011;58446;41.490;22.098;2024-03-06T09:34:34;15.83;;;8.77;;
70825;SDS011;58446;41.490;22.098;2024-03-06T09:36:59;18.17;;;9.05;;
70825;SDS011;58446;41.490;22.098;2024-03-06T09:39:26;15.88;;;9.95;;
70825;SDS011;58446;41.490;22.098;2024-03-06T09:41:52;17.03;;;9.53;;
70825;SDS011;58446;41.490;22.098;2024-03-06T09:44:18;14.82;;;9.68;;
70825;SDS011;58446;41.490;22.098;2024-03-06T09:46:46;17.80;;;10.95;;
70825;SDS011;58446;41.490;22.098;2024-03-06T09:49:13;17.27;;;11.03;;
70825;SDS011;58446;41.490;22.098;2024-03-06T09:51:43;18.40;;;9.52;;
70825;SDS011;58446;41.490;22.098;2024-03-06T09:54:11;16.88;;;10.13;;
70825;SDS011;58446;41.490;22.098;2024-03-06T09:56:38;51.83;;;29.73;;
70825;SDS011;58446;41.490;22.098;2024-03-06T09:59:04;34.50;;;17.40;;
70825;SDS011;58446;41.490;22.098;2024-03-06T10:01:31;25.60;;;15.38;;
70825;SDS011;58446;41.490;22.098;2024-03-06T10:03:57;21.52;;;12.57;;
70825;SDS011;58446;41.490;22.098;2024-03-06T10:06:23;17.77;;;11.17;;
70825;SDS011;58446;41.490;22.098;2024-03-06T10:08:50;20.97;;;13.30;;
70825;SDS011;58446;41.490;22.098;2024-03-06T10:11:17;28.17;;;17.10;;
70825;SDS011;58446;41.490;22.098;2024-03-06T10:13:42;25.73;;;12.95;;
70825;SDS011;58446;41.490;22.098;2024-03-06T10:16:08;21.43;;;13.60;;
70825;SDS011;58446;41.490;22.098;2024-03-06T10:18:35;18.02;;;9.82;;
70825;SDS011;58446;41.490;22.098;2024-03-06T10:21:03;16.20;;;11.52;;
70825;SDS011;58446;41.490;22.098;2024-03-06T10:23:30;19.02;;;11.15;;
70825;SDS011;58446;41.490;22.098;2024-03-06T10:25:56;20.50;;;12.77;;
70825;SDS011;58446;41.490;22.098;2024-03-06T10:28:22;16.63;;;11.38;;
70825;SDS011;58446;41.490;22.098;2024-03-06T10:30:49;21.38;;;12.40;;
70825;SDS011;58446;41.490;22.098;2024-03-06T10:33:17;23.05;;;14.13;;
70825;SDS011;58446;41.490;22.098;2024-03-06T10:35:46;21.13;;;11.60;;
70825;SDS011;58446;41.490;22.098;2024-03-06T10:38:16;18.13;;;9.93;;
70825;SDS011;58446;41.490;22.098;2024-03-06T10:40:45;18.17;;;11.50;;
70825;SDS011;58446;41.490;22.098;2024-03-06T10:43:12;20.77;;;11.05;;
70825;SDS011;58446;41.490;22.098;2024-03-06T10:45:44;19.20;;;12.10;;
70825;SDS011;58446;41.490;22.098;2024-03-06T10:48:22;16.17;;;10.10;;
70825;SDS011;58446;41.490;22.098;2024-03-06T10:50:49;15.35;;;9.77;;
70825;SDS011;58446;41.490;22.098;2024-03-06T10:53:16;16.38;;;9.43;;
70825;SDS011;58446;41.490;22.098;2024-03-06T10:55:43;15.25;;;9.73;;
70825;SDS011;58446;41.490;22.098;2024-03-06T10:58:09;21.70;;;12.57;;
70825;SDS011;58446;41.490;22.098;2024-03-06T11:00:39;15.40;;;9.43;;
70825;SDS011;58446;41.490;22.098;2024-03-06T11:03:06;18.63;;;9.40;;
70825;SDS011;58446;41.490;22.098;2024-03-06T11:05:36;14.25;;;9.52;;
70825;SDS011;58446;41.490;22.098;2024-03-06T11:08:06;17.30;;;9.63;;
70825;SDS011;58446;41.490;22.098;2024-03-06T11:10:43;18.23;;;13.63;;
70825;SDS011;58446;41.490;22.098;2024-03-06T11:15:48;15.75;;;10.05;;
70825;SDS011;58446;41.490;22.098;2024-03-06T11:23:32;17.47;;;10.10;;
70825;SDS011;58446;41.490;22.098;2024-03-06T11:26:05;19.08;;;10.10;;
70825;SDS011;58446;41.490;22.098;2024-03-06T11:28:35;14.75;;;9.45;;
70825;SDS011;58446;41.490;22.098;2024-03-06T11:31:09;14.40;;;9.02;;
70825;SDS011;58446;41.490;22.098;2024-03-06T11:33:41;16.67;;;9.07;;
70825;SDS011;58446;41.490;22.098;2024-03-06T11:36:21;14.33;;;8.40;;
70825;SDS011;58446;41.490;22.098;2024-03-06T11:38:51;16.80;;;11.43;;
70825;SDS011;58446;41.490;22.098;2024-03-06T11:44:12;16.50;;;10.60;;
70825;SDS011;58446;41.490;22.098;2024-03-06T11:46:46;16.42;;;9.88;;
70825;SDS011;58446;41.490;22.098;2024-03-06T11:49:23;13.33;;;8.07;;
70825;SDS011;58446;41.490;22.098;2024-03-06T11:51:52;13.77;;;8.98;;
70825;SDS011;58446;41.490;22.098;2024-03-06T11:54:18;14.07;;;8.82;;
70825;SDS011;58446;41.490;22.098;2024-03-06T11:56:48;13.50;;;8.52;;
70825;SDS011;58446;41.490;22.098;2024-03-06T11:59:25;13.73;;;8.43;;
70825;SDS011;58446;41.490;22.098;2024-03-06T12:01:52;15.00;;;8.87;;
70825;SDS011;58446;41.490;22.098;2024-03-06T12:04:20;13.27;;;8.50;;
70825;SDS011;58446;41.490;22.098;2024-03-06T12:06:46;14.15;;;8.57;;
70825;SDS011;58446;41.490;22.098;2024-03-06T12:09:13;13.77;;;8.32;;
70825;SDS011;58446;41.490;22.098;2024-03-06T12:11:40;13.82;;;8.43;;
70825;SDS011;58446;41.490;22.098;2024-03-06T12:14:12;12.57;;;7.90;;
70825;SDS011;58446;41.490;22.098;2024-03-06T12:16:43;11.10;;;6.97;;
70825;SDS011;58446;41.490;22.098;2024-03-06T12:19:19;13.65;;;7.43;;
70825;SDS011;58446;41.490;22.098;2024-03-06T12:21:46;11.43;;;7.43;;
70825;SDS011;58446;41.490;22.098;2024-03-06T12:24:12;23.40;;;11.75;;
70825;SDS011;58446;41.490;22.098;2024-03-06T12:26:43;12.40;;;7.23;;
70825;SDS011;58446;41.490;22.098;2024-03-06T12:29:10;11.32;;;7.20;;
70825;SDS011;58446;41.490;22.098;2024-03-06T12:31:37;14.18;;;6.40;;
70825;SDS011;58446;41.490;22.098;2024-03-06T12:34:05;11.27;;;6.25;;
70825;SDS011;58446;41.490;22.098;2024-03-06T12:36:31;10.15;;;6.28;;
70825;SDS011;58446;41.490;22.098;2024-03-06T12:39:03;11.10;;;5.53;;
70825;SDS011;58446;41.490;22.098;2024-03-06T12:41:38;10.50;;;5.85;;
70825;SDS011;58446;41.490;22.098;2024-03-06T12:44:05;8.80;;;5.50;;
70825;SDS011;58446;41.490;22.098;2024-03-06T12:46:32;11.25;;;5.70;;
70825;SDS011;58446;41.490;22.098;2024-03-06T12:48:57;9.13;;;5.30;;
70825;SDS011;58446;41.490;22.098;2024-03-06T12:51:23;14.48;;;6.00;;
70825;SDS011;58446;41.490;22.098;2024-03-06T12:53:49;10.57;;;5.50;;
70825;SDS011;58446;41.490;22.098;2024-03-06T12:56:16;11.40;;;6.13;;
70825;SDS011;58446;41.490;22.098;2024-03-06T12:58:42;8.63;;;5.15;;
70825;SDS011;58446;41.490;22.098;2024-03-06T13:01:08;9.25;;;5.28;;
70825;SDS011;58446;41.490;22.098;2024-03-06T13:03:35;10.63;;;6.60;;
70825;SDS011;58446;41.490;22.098;2024-03-06T13:06:01;10.03;;;5.90;;
70825;SDS011;58446;41.490;22.098;2024-03-06T13:08:29;11.05;;;5.82;;
70825;SDS011;58446;41.490;22.098;2024-03-06T13:10:55;9.85;;;6.00;;
70825;SDS011;58446;41.490;22.098;2024-03-06T13:13:21;10.52;;;6.03;;
70825;SDS011;58446;41.490;22.098;2024-03-06T13:15:49;10.90;;;6.07;;
70825;SDS011;58446;41.490;22.098;2024-03-06T13:18:15;10.77;;;5.47;;
70825;SDS011;58446;41.490;22.098;2024-03-06T13:20:42;12.75;;;7.20;;
70825;SDS011;58446;41.490;22.098;2024-03-06T13:23:07;13.57;;;6.55;;
70825;SDS011;58446;41.490;22.098;2024-03-06T13:25:34;12.15;;;6.97;;
70825;SDS011;58446;41.490;22.098;2024-03-06T13:28:00;11.30;;;6.47;;
70825;SDS011;58446;41.490;22.098;2024-03-06T13:30:26;9.77;;;5.27;;
70825;SDS011;58446;41.490;22.098;2024-03-06T13:32:53;31.98;;;14.30;;
70825;SDS011;58446;41.490;22.098;2024-03-06T13:35:19;11.02;;;6.10;;
70825;SDS011;58446;41.490;22.098;2024-03-06T13:37:45;9.52;;;5.20;;
70825;SDS011;58446;41.490;22.098;2024-03-06T13:40:11;10.85;;;5.97;;
70825;SDS011;58446;41.490;22.098;2024-03-06T13:42:41;10.20;;;5.60;;
70825;SDS011;58446;41.490;22.098;2024-03-06T13:45:07;9.02;;;5.25;;
70825;SDS011;58446;41.490;22.098;2024-03-06T13:47:40;8.52;;;5.40;;
70825;SDS011;58446;41.490;22.098;2024-03-06T13:50:10;10.30;;;5.97;;
70825;SDS011;58446;41.490;22.098;2024-03-06T13:52:37;8.77;;;5.00;;
70825;SDS011;58446;41.490;22.098;2024-03-06T13:55:03;8.90;;;4.83;;
70825;SDS011;58446;41.490;22.098;2024-03-06T13:57:33;8.85;;;4.78;;
70825;SDS011;58446;41.490;22.098;2024-03-06T14:00:00;9.25;;;5.00;;
70825;SDS011;58446;41.490;22.098;2024-03-06T14:02:28;8.43;;;4.80;;
70825;SDS011;58446;41.490;22.098;2024-03-06T14:04:54;12.25;;;7.32;;
70825;SDS011;58446;41.490;22.098;2024-03-06T14:07:20;8.73;;;5.00;;
70825;SDS011;58446;41.490;22.098;2024-03-06T14:09:45;6.70;;;3.72;;
70825;SDS011;58446;41.490;22.098;2024-03-06T14:12:11;9.67;;;4.37;;
70825;SDS011;58446;41.490;22.098;2024-03-06T14:14:37;11.60;;;7.28;;
70825;SDS011;58446;41.490;22.098;2024-03-06T14:17:02;11.17;;;6.13;;
70825;SDS011;58446;41.490;22.098;2024-03-06T14:19:29;7.88;;;4.40;;
70825;SDS011;58446;41.490;22.098;2024-03-06T14:21:54;7.07;;;4.27;;